createdAt,value
2022-12-31T00:04:11.117Z,98288.03
2022-12-31T00:11:11.551Z,98291.94
2022-12-31T00:24:05.863Z,98271.59
2022-12-31T00:31:21.704Z,98354.09
2022-12-31T00:39:31.911Z,98304.06
2022-12-31T01:07:14.725Z,98311.50
2022-12-31T01:34:37.933Z,98356.84
2022-12-31T01:37:50.173Z,98348.50
2022-12-31T01:41:00.248Z,98303.13
2022-12-31T01:44:55.301Z,98336.69
2022-12-31T01:48:06.282Z,98348.22
2022-12-31T01:51:14.189Z,98377.41
2022-12-31T01:54:28.819Z,98374.09
2022-12-31T01:57:39.489Z,98365.47
2022-12-31T02:00:50.449Z,98357.66
2022-12-31T02:04:02.235Z,98346.81
2022-12-31T02:07:12.211Z,98324.84
2022-12-31T02:10:23.968Z,98390.31
2022-12-31T02:13:30.391Z,98374.97
2022-12-31T02:16:55.287Z,98355.06
2022-12-31T02:20:49.063Z,98314.38
2022-12-31T02:28:07.458Z,98378.53
2022-12-31T02:31:28.068Z,98296.19
2022-12-31T02:34:42.820Z,98368.19
2022-12-31T02:38:00.057Z,98326.38
2022-12-31T02:41:07.441Z,98316.47
2022-12-31T02:44:27.762Z,98303.44
2022-12-31T02:47:59.613Z,98349.31
2022-12-31T02:51:31.148Z,98348.50
2022-12-31T02:54:55.760Z,98328.19
2022-12-31T02:58:17.029Z,98300.41
2022-12-31T03:01:48.805Z,98318.66
2022-12-31T03:04:59.973Z,98303.75
2022-12-31T03:08:06.743Z,98353.53
2022-12-31T03:11:32.600Z,98359.88
2022-12-31T03:14:36.776Z,98372.78
2022-12-31T03:17:42.667Z,98376.44
2022-12-31T03:21:07.127Z,98385.75
2022-12-31T03:24:28.003Z,98373.06
2022-12-31T03:27:34.862Z,98375.88
2022-12-31T03:30:43.919Z,98371.06
2022-12-31T03:33:53.728Z,98382.69
2022-12-31T03:37:02.224Z,98386.34
2022-12-31T03:40:23.129Z,98336.47
2022-12-31T03:43:29.892Z,98376.63
2022-12-31T03:46:36.749Z,98340.44
2022-12-31T03:49:42.576Z,98331.06
2022-12-31T03:52:51.897Z,98380.81
2022-12-31T03:55:58.743Z,98387.53
2022-12-31T03:59:05.704Z,98374.19
2022-12-31T04:02:11.760Z,98374.47
2022-12-31T04:05:20.611Z,98356.78
2022-12-31T04:08:29.566Z,98373.94
2022-12-31T04:11:36.509Z,98358.50
2022-12-31T04:14:42.654Z,98319.91
2022-12-31T04:17:52.715Z,98333.19
2022-12-31T04:21:04.719Z,98367.09
2022-12-31T04:24:15.338Z,98337.69
2022-12-31T04:31:37.387Z,98398.44
2022-12-31T04:34:44.276Z,98333.81
2022-12-31T04:37:50.870Z,98362.75
2022-12-31T04:41:14.128Z,98363.16
2022-12-31T04:44:21.150Z,98414.34
2022-12-31T04:47:31.262Z,98435.63
2022-12-31T04:50:38.174Z,98370.91
2022-12-31T04:53:46.031Z,98424.94
2022-12-31T04:56:58.741Z,98408.22
2022-12-31T05:00:06.178Z,98372.78
2022-12-31T05:03:12.429Z,98403.00
2022-12-31T05:06:32.320Z,98406.28
2022-12-31T05:09:43.751Z,98375.75
2022-12-31T05:12:57.462Z,98384.34
2022-12-31T05:16:04.740Z,98411.06
2022-12-31T05:19:23.433Z,98435.63
2022-12-31T05:22:52.554Z,98425.00
2022-12-31T05:26:00.186Z,98411.84
2022-12-31T05:29:10.740Z,98413.50
2022-12-31T05:32:17.882Z,98401.03
2022-12-31T05:35:40.961Z,98369.91
2022-12-31T05:38:59.303Z,98352.09
2022-12-31T05:42:14.020Z,98406.25
2022-12-31T05:49:30.080Z,98375.81
2022-12-31T05:52:47.809Z,98386.19
2022-12-31T05:55:59.034Z,98400.94
2022-12-31T05:59:10.821Z,98426.41
2022-12-31T06:02:17.344Z,98373.41
2022-12-31T06:05:28.081Z,98443.06
2022-12-31T06:08:37.975Z,98377.69
2022-12-31T06:11:45.994Z,98404.75
2022-12-31T06:14:53.075Z,98458.66
2022-12-31T06:18:00.036Z,98455.91
2022-12-31T06:21:09.276Z,98445.16
2022-12-31T06:24:16.129Z,98455.38
2022-12-31T06:27:22.105Z,98450.34
2022-12-31T06:30:28.890Z,98442.38
2022-12-31T06:33:36.214Z,98441.25
2022-12-31T06:36:45.408Z,98447.91
2022-12-31T06:39:51.897Z,98444.63
2022-12-31T06:43:00.415Z,98437.91
2022-12-31T06:46:09.838Z,98435.44
2022-12-31T06:49:17.426Z,98444.78
2022-12-31T06:52:26.099Z,98444.13
2022-12-31T06:55:34.175Z,98456.91
2022-12-31T06:58:42.307Z,98459.22
2022-12-31T07:02:08.443Z,98462.50
2022-12-31T07:05:33.831Z,98466.59
2022-12-31T07:08:57.111Z,98472.22
2022-12-31T07:12:15.283Z,98468.78
2022-12-31T07:15:49.294Z,98485.34
2022-12-31T07:19:15.839Z,98488.47
2022-12-31T07:22:25.099Z,98493.56
2022-12-31T07:25:35.592Z,98500.28
2022-12-31T07:29:02.247Z,98486.88
2022-12-31T07:32:28.512Z,98492.47
2022-12-31T07:35:55.606Z,98483.50
2022-12-31T07:39:12.138Z,98495.63
2022-12-31T07:42:36.014Z,98485.16
2022-12-31T07:45:53.676Z,98496.81
2022-12-31T07:49:01.675Z,98506.50
2022-12-31T07:52:08.891Z,98498.69
2022-12-31T07:55:15.932Z,98486.16
2022-12-31T07:58:51.239Z,98502.25
2022-12-31T08:02:12.166Z,98514.88
2022-12-31T08:05:32.868Z,98513.06
2022-12-31T08:08:56.441Z,98514.72
2022-12-31T08:12:04.638Z,98512.75
2022-12-31T08:15:26.865Z,98519.47
2022-12-31T08:18:36.959Z,98525.00
2022-12-31T08:22:04.610Z,98518.66
2022-12-31T08:25:33.203Z,98505.19
2022-12-31T08:29:04.714Z,98490.75
2022-12-31T08:32:27.102Z,98486.81
2022-12-31T08:36:03.374Z,98508.31
2022-12-31T08:39:25.687Z,98509.63
2022-12-31T08:42:44.622Z,98503.72
2022-12-31T08:45:55.687Z,98505.91
2022-12-31T08:49:05.898Z,98505.56
2022-12-31T08:52:23.211Z,98520.81
2022-12-31T08:55:31.517Z,98520.16
2022-12-31T08:58:54.313Z,98519.16
2022-12-31T09:02:47.860Z,98528.03
2022-12-31T09:06:13.390Z,98527.84
2022-12-31T09:09:42.083Z,98518.19
2022-12-31T09:13:15.133Z,98519.94
2022-12-31T09:16:36.435Z,98515.66
2022-12-31T09:19:42.329Z,98505.31
2022-12-31T09:22:53.106Z,98490.41
2022-12-31T09:26:18.560Z,98483.97
2022-12-31T09:29:51.706Z,98508.56
2022-12-31T09:33:11.068Z,98513.47
2022-12-31T09:36:30.428Z,98524.75
2022-12-31T09:39:47.154Z,98501.59
2022-12-31T09:43:29.303Z,98506.22
2022-12-31T09:47:52.928Z,98516.84
2022-12-31T09:51:31.479Z,98497.09
2022-12-31T09:54:57.092Z,98512.53
2022-12-31T09:58:31.736Z,98519.88
2022-12-31T10:02:00.282Z,98497.81
2022-12-31T10:05:43.439Z,98491.00
2022-12-31T10:09:30.218Z,98483.53
2022-12-31T10:13:25.789Z,98486.19
2022-12-31T10:17:06.090Z,98491.47
2022-12-31T10:20:45.542Z,98497.78
2022-12-31T10:24:42.386Z,98486.91
2022-12-31T10:28:08.727Z,98497.78
2022-12-31T10:31:34.608Z,98507.25
2022-12-31T10:35:02.672Z,98508.97
2022-12-31T10:38:27.510Z,98500.75
2022-12-31T10:42:24.575Z,98502.03
2022-12-31T10:46:29.528Z,98515.66
2022-12-31T10:50:31.971Z,98521.50
2022-12-31T10:54:26.993Z,98539.50
2022-12-31T10:58:39.456Z,98533.69
2022-12-31T11:02:03.871Z,98528.41
2022-12-31T11:06:14.215Z,98525.25
2022-12-31T11:10:15.215Z,98518.06
2022-12-31T11:14:12.768Z,98512.72
2022-12-31T11:17:47.856Z,98494.94
2022-12-31T11:21:28.031Z,98490.41
2022-12-31T11:25:03.240Z,98494.28
2022-12-31T11:29:01.659Z,98492.91
2022-12-31T11:32:33.989Z,98482.47
2022-12-31T11:36:16.852Z,98501.16
2022-12-31T11:39:50.148Z,98489.19
2022-12-31T11:43:04.121Z,98482.59
2022-12-31T11:46:36.946Z,98481.69
2022-12-31T11:50:15.497Z,98475.53
2022-12-31T11:54:15.807Z,98469.16
2022-12-31T11:57:34.408Z,98486.97
2022-12-31T12:00:47.384Z,98486.19
2022-12-31T12:03:54.302Z,98480.13
2022-12-31T12:07:00.186Z,98483.22
2022-12-31T12:10:36.188Z,98482.72
2022-12-31T12:13:42.696Z,98450.22
2022-12-31T12:16:49.780Z,98462.13
2022-12-31T12:19:59.841Z,98462.63
2022-12-31T12:23:20.342Z,98456.44
2022-12-31T12:26:41.637Z,98448.38
2022-12-31T12:29:48.172Z,98452.56
2022-12-31T12:32:59.582Z,98452.75
2022-12-31T12:36:15.546Z,98451.56
2022-12-31T12:39:26.267Z,98466.22
2022-12-31T12:42:35.619Z,98458.59
2022-12-31T12:45:52.423Z,98475.56
2022-12-31T12:49:02.817Z,98466.84
2022-12-31T12:52:46.180Z,98464.22
2022-12-31T12:56:22.935Z,98452.53
2022-12-31T13:00:12.480Z,98454.91
2022-12-31T13:04:33.493Z,98455.91
2022-12-31T13:07:46.990Z,98457.09
2022-12-31T13:11:21.876Z,98430.38
2022-12-31T13:14:41.988Z,98454.19
2022-12-31T13:18:07.667Z,98452.56
2022-12-31T13:21:39.626Z,98447.53
2022-12-31T13:25:03.778Z,98459.66
2022-12-31T13:28:19.038Z,98465.66
2022-12-31T13:31:37.362Z,98462.00
2022-12-31T13:34:54.712Z,98455.75
2022-12-31T13:38:14.661Z,98453.09
2022-12-31T13:41:30.504Z,98454.56
2022-12-31T13:44:48.906Z,98464.19
2022-12-31T13:48:09.076Z,98453.28
2022-12-31T13:51:32.709Z,98480.91
2022-12-31T13:54:55.690Z,98476.53
2022-12-31T13:58:19.384Z,98483.25
2022-12-31T14:01:36.075Z,98481.81
2022-12-31T14:04:53.408Z,98496.16
2022-12-31T14:08:05.442Z,98481.09
2022-12-31T14:11:27.721Z,98482.97
2022-12-31T14:14:48.834Z,98479.34
2022-12-31T14:18:12.701Z,98499.84
2022-12-31T14:21:31.648Z,98495.56
2022-12-31T14:24:49.964Z,98510.94
2022-12-31T14:28:02.220Z,98517.34
2022-12-31T14:31:30.600Z,98508.00
2022-12-31T14:34:57.641Z,98499.16
2022-12-31T14:38:22.827Z,98515.31
2022-12-31T14:42:06.574Z,98497.88
2022-12-31T14:45:36.396Z,98502.41
2022-12-31T14:49:00.618Z,98495.50
2022-12-31T14:52:26.544Z,98515.09
2022-12-31T14:55:36.572Z,98512.50
2022-12-31T14:58:46.202Z,98513.47
2022-12-31T15:01:52.542Z,98507.38
2022-12-31T15:05:20.383Z,98516.19
2022-12-31T15:08:52.224Z,98494.72
2022-12-31T15:12:33.941Z,98507.66
2022-12-31T15:16:21.737Z,98505.66
2022-12-31T15:20:19.054Z,98511.25
2022-12-31T15:23:35.888Z,98507.31
2022-12-31T15:26:54.101Z,98517.16
2022-12-31T15:30:00.647Z,98524.84
2022-12-31T15:33:22.810Z,98527.31
2022-12-31T15:36:32.535Z,98533.84
2022-12-31T15:39:45.932Z,98520.75
2022-12-31T15:43:01.400Z,98528.56
2022-12-31T15:46:20.395Z,98536.66
2022-12-31T15:49:39.798Z,98534.88
2022-12-31T15:52:53.387Z,98540.94
2022-12-31T15:56:04.337Z,98543.50
2022-12-31T15:59:20.149Z,98545.97
2022-12-31T16:02:30.481Z,98546.69
2022-12-31T16:05:39.791Z,98542.22
2022-12-31T16:08:51.206Z,98536.25
2022-12-31T16:12:01.338Z,98540.34
2022-12-31T16:15:08.822Z,98536.91
2022-12-31T16:18:22.628Z,98543.81
2022-12-31T16:21:35.840Z,98547.25
2022-12-31T16:25:03.143Z,98553.16
2022-12-31T16:28:08.645Z,98549.72
2022-12-31T16:31:22.026Z,98546.44
2022-12-31T16:34:31.435Z,98566.81
2022-12-31T16:37:40.791Z,98558.72
2022-12-31T16:41:14.357Z,98566.44
2022-12-31T16:44:30.513Z,98563.25
2022-12-31T16:47:40.994Z,98584.53
2022-12-31T16:50:51.956Z,98584.72
2022-12-31T16:54:02.475Z,98588.78
2022-12-31T16:57:12.097Z,98582.19
2022-12-31T17:00:22.218Z,98577.28
2022-12-31T17:03:32.737Z,98578.72
2022-12-31T17:06:38.717Z,98597.97
2022-12-31T17:09:48.111Z,98594.53
2022-12-31T17:16:27.705Z,98563.72
2022-12-31T17:19:47.821Z,98577.44
2022-12-31T17:23:01.299Z,98571.16
2022-12-31T17:26:15.706Z,98565.63
2022-12-31T17:29:26.563Z,98568.50
2022-12-31T17:32:40.160Z,98571.31
2022-12-31T17:35:49.459Z,98565.88
2022-12-31T17:38:55.380Z,98573.59
2022-12-31T17:42:05.583Z,98581.78
2022-12-31T17:45:24.393Z,98587.25
2022-12-31T17:48:34.505Z,98599.06
2022-12-31T17:51:45.611Z,98582.72
2022-12-31T17:54:54.702Z,98586.09
2022-12-31T17:58:09.326Z,98585.56
2022-12-31T18:01:23.052Z,98578.47
2022-12-31T18:04:31.912Z,98580.75
2022-12-31T18:07:38.806Z,98576.75
2022-12-31T18:10:47.888Z,98585.13
2022-12-31T18:13:58.281Z,98581.94
2022-12-31T18:17:04.251Z,98589.16
2022-12-31T18:20:15.439Z,98600.06
2022-12-31T18:23:28.756Z,98582.63
2022-12-31T18:26:36.090Z,98584.59
2022-12-31T18:29:44.622Z,98603.88
2022-12-31T18:32:51.860Z,98598.44
2022-12-31T18:36:08.738Z,98571.41
2022-12-31T18:39:16.458Z,98590.56
2022-12-31T18:42:28.556Z,98597.41
2022-12-31T18:45:37.837Z,98588.53
2022-12-31T18:48:44.445Z,98594.16
2022-12-31T18:51:54.312Z,98576.88
2022-12-31T18:55:00.294Z,98590.78
2022-12-31T18:58:11.315Z,98587.75
2022-12-31T19:01:31.182Z,98612.28
2022-12-31T19:04:37.909Z,98578.16
2022-12-31T19:07:43.787Z,98604.16
2022-12-31T19:10:54.416Z,98603.16
2022-12-31T19:14:00.237Z,98596.53
2022-12-31T19:20:14.512Z,98590.09
2022-12-31T19:23:24.200Z,98604.44
2022-12-31T19:26:30.157Z,98601.56
2022-12-31T19:29:37.532Z,98608.84
2022-12-31T19:32:45.970Z,98611.56
2022-12-31T19:35:52.865Z,98606.78
2022-12-31T19:38:58.653Z,98604.47
2022-12-31T19:42:05.212Z,98592.56
2022-12-31T19:45:18.249Z,98604.13
2022-12-31T19:48:32.710Z,98612.38
2022-12-31T19:51:39.043Z,98632.84
2022-12-31T19:54:45.614Z,98627.41
2022-12-31T19:57:52.648Z,98626.94
2022-12-31T20:01:03.433Z,98625.81
2022-12-31T20:04:11.948Z,98630.00
2022-12-31T20:07:23.605Z,98639.69
2022-12-31T20:10:32.719Z,98627.69
2022-12-31T20:13:40.374Z,98633.34
2022-12-31T20:16:47.014Z,98628.06
2022-12-31T20:19:57.433Z,98634.97
2022-12-31T20:23:06.552Z,98629.06
2022-12-31T20:26:15.353Z,98630.69
2022-12-31T20:29:21.956Z,98631.34
2022-12-31T20:32:28.681Z,98620.16
2022-12-31T20:35:37.071Z,98618.50
2022-12-31T20:38:44.007Z,98621.13
2022-12-31T20:41:50.610Z,98611.78
2022-12-31T20:44:57.311Z,98621.69
2022-12-31T20:48:03.139Z,98612.50
2022-12-31T20:51:12.740Z,98606.13
2022-12-31T20:54:18.729Z,98605.38
2022-12-31T20:57:30.171Z,98599.16
2022-12-31T21:00:39.599Z,98597.72
2022-12-31T21:04:06.718Z,98595.41
2022-12-31T21:07:15.685Z,98596.28
2022-12-31T21:10:22.298Z,98595.31
2022-12-31T21:13:28.280Z,98596.59
2022-12-31T21:16:35.800Z,98596.94
2022-12-31T21:19:41.825Z,98604.19
2022-12-31T21:22:52.068Z,98605.91
2022-12-31T21:25:57.906Z,98612.69
2022-12-31T21:29:04.844Z,98618.50
2022-12-31T21:32:10.687Z,98619.63
2022-12-31T21:38:47.623Z,98611.47
2022-12-31T21:41:54.394Z,98620.31
2022-12-31T21:45:00.567Z,98621.81
2022-12-31T21:48:25.124Z,98618.00
2022-12-31T21:51:32.049Z,98625.09
2022-12-31T21:54:53.790Z,98634.72
2022-12-31T21:58:25.173Z,98632.31
2022-12-31T22:01:39.139Z,98645.75
2022-12-31T22:05:02.341Z,98640.84
2022-12-31T22:08:09.898Z,98641.00
2022-12-31T22:11:21.019Z,98642.19
2022-12-31T22:14:27.774Z,98651.06
2022-12-31T22:17:33.673Z,98647.44
2022-12-31T22:20:41.792Z,98652.88
2022-12-31T22:23:48.772Z,98654.50
2022-12-31T22:26:59.824Z,98658.97
2022-12-31T22:30:25.651Z,98647.63
2022-12-31T22:33:32.334Z,98649.78
2022-12-31T22:36:38.314Z,98663.63
2022-12-31T22:39:45.138Z,98643.38
2022-12-31T22:42:53.732Z,98652.25
2022-12-31T22:46:00.520Z,98650.59
2022-12-31T22:49:08.038Z,98642.03
2022-12-31T22:52:14.754Z,98652.34
2022-12-31T22:55:20.838Z,98646.09
2022-12-31T22:58:30.526Z,98649.22
2022-12-31T23:01:37.034Z,98642.94
2022-12-31T23:04:43.768Z,98654.94
2022-12-31T23:07:49.631Z,98659.88
2022-12-31T23:11:05.813Z,98654.44
2022-12-31T23:14:32.657Z,98651.50
2022-12-31T23:17:51.709Z,98656.13
2022-12-31T23:21:09.825Z,98662.56
2022-12-31T23:24:22.773Z,98650.72
2022-12-31T23:27:32.039Z,98650.78
2022-12-31T23:30:42.366Z,98648.97
2022-12-31T23:33:48.327Z,98643.53
2022-12-31T23:36:54.963Z,98644.03
2022-12-31T23:40:00.927Z,98654.41
2022-12-31T23:43:11.378Z,98655.53
2022-12-31T23:46:20.888Z,98665.03
2022-12-31T23:49:27.775Z,98664.88
2022-12-31T23:52:33.736Z,98657.19
2022-12-31T23:55:40.328Z,98645.38
2022-12-31T23:58:46.559Z,98656.09
